Time;durP1;ratioP1;P1;durP2;ratioP2;P2;SDS_P1;SDS_P2;PMS_P1;PMS_P2;Temp;Humidity;BMP_temperature;BMP_pressure;BME280_temperature;BME280_humidity;BME280_pressure;Samples;Min_cycle;Max_cycle;Signal;HPM_P1;HPM_P2
2021/12/01 00:00:51;;;;;;;3.92;2.17;;;;;;;9.57;100.00;100055.16;4914074;29;20052;-52
2021/12/01 00:03:20;;;;;;;3.03;2.13;;;;;;;9.57;100.00;100066.84;4910914;29;20047;-51
2021/12/01 00:05:48;;;;;;;3.58;1.95;;;;;;;9.57;100.00;100055.97;4936806;29;20047;-54
2021/12/01 00:08:16;;;;;;;1.75;1.65;;;;;;;9.56;100.00;100043.47;4952735;29;20043;-50
2021/12/01 00:10:45;;;;;;;1.60;1.50;;;;;;;9.54;100.00;100039.41;4953396;28;20055;-49
2021/12/01 00:13:14;;;;;;;1.90;1.80;;;;;;;9.55;100.00;100022.00;4958686;28;20051;-50
2021/12/01 00:15:44;;;;;;;2.15;1.67;;;;;;;9.53;100.00;100016.84;4957379;28;20397;-50
2021/12/01 00:18:12;;;;;;;1.58;1.48;;;;;;;9.65;100.00;100008.34;4956727;28;20048;-47
2021/12/01 00:20:40;;;;;;;2.40;2.03;;;;;;;9.67;100.00;100000.72;4956768;29;20094;-52
2021/12/01 00:23:09;;;;;;;1.83;1.70;;;;;;;9.67;100.00;100005.31;4957575;28;20163;-47
2021/12/01 00:25:39;;;;;;;2.35;1.17;;;;;;;9.65;100.00;99983.03;4956959;28;20051;-51
2021/12/01 00:28:08;;;;;;;1.40;1.30;;;;;;;9.59;100.00;99974.91;4956814;28;20047;-54
2021/12/01 00:30:35;;;;;;;2.70;1.40;;;;;;;9.64;100.00;99965.88;4956597;28;20043;-50
2021/12/01 00:33:03;;;;;;;2.25;1.73;;;;;;;9.61;100.00;99955.59;4957930;28;20077;-54
2021/12/01 00:35:31;;;;;;;2.45;1.50;;;;;;;9.62;100.00;99954.50;4956706;28;20103;-55
2021/12/01 00:37:59;;;;;;;2.78;1.25;;;;;;;9.64;100.00;99930.53;4955917;29;20042;-51
2021/12/01 00:40:40;;;;;;;2.42;1.92;;;;;;;9.61;100.00;99933.81;4956103;28;20039;-52
2021/12/01 00:43:15;;;;;;;3.25;1.35;;;;;;;9.66;100.00;99927.53;4957281;28;20197;-50
2021/12/01 00:45:54;;;;;;;1.42;1.33;;;;;;;9.69;100.00;99916.91;4956744;28;20050;-53
2021/12/01 00:48:21;;;;;;;2.42;1.65;;;;;;;9.61;100.00;99914.78;4943844;28;20455;-51
2021/12/01 00:50:50;;;;;;;1.40;1.30;;;;;;;9.57;100.00;99908.28;4956391;28;20051;-51
2021/12/01 00:53:18;;;;;;;3.05;1.10;;;;;;;9.54;100.00;99914.31;4955754;28;20073;-51
2021/12/01 00:55:46;;;;;;;1.67;1.50;;;;;;;9.53;100.00;99909.97;4957439;28;20044;-53
2021/12/01 00:58:15;;;;;;;1.83;1.60;;;;;;;9.60;100.00;99905.03;4956138;28;20043;-53
2021/12/01 01:00:44;;;;;;;1.75;1.35;;;;;;;9.62;100.00;99905.56;4956161;28;20506;-50
2021/12/01 01:03:11;;;;;;;1.95;1.50;;;;;;;9.66;100.00;99898.44;4957095;28;20150;-52
2021/12/01 01:05:39;;;;;;;2.03;1.30;;;;;;;9.63;100.00;99893.56;4956084;29;20035;-50
2021/12/01 01:08:08;;;;;;;2.67;1.63;;;;;;;9.64;100.00;99892.47;4955513;28;20123;-51
2021/12/01 01:18:48;;;;;;;2.50;1.48;;;;;;;9.59;100.00;99868.84;4954357;29;20081;-53
2021/12/01 01:21:16;;;;;;;1.40;1.30;;;;;;;9.67;100.00;99864.72;4955484;28;20442;-50
2021/12/01 01:23:44;;;;;;;1.52;1.20;;;;;;;9.65;100.00;99857.94;4955572;28;20111;-50
2021/12/01 01:26:16;;;;;;;1.30;1.20;;;;;;;9.61;100.00;99860.41;4955483;28;20066;-52
2021/12/01 01:28:44;;;;;;;1.75;1.33;;;;;;;9.62;100.00;99840.28;4955231;28;20059;-50
2021/12/01 01:31:12;;;;;;;1.73;1.63;;;;;;;9.62;100.00;99845.72;4955503;28;20524;-55
2021/12/01 01:33:40;;;;;;;1.08;1.02;;;;;;;9.61;100.00;99835.91;4956576;28;20050;-50
2021/12/01 01:36:08;;;;;;;1.70;1.48;;;;;;;9.60;100.00;99826.16;4954891;28;20063;-50
2021/12/01 01:38:37;;;;;;;1.52;1.35;;;;;;;9.59;100.00;99835.38;4955481;28;20043;-52
2021/12/01 01:41:07;;;;;;;3.80;1.77;;;;;;;9.76;100.00;99824.88;4953951;29;20044;-49
2021/12/01 01:43:37;;;;;;;3.00;1.67;;;;;;;9.76;100.00;99829.53;4954103;29;20051;-49
2021/12/01 01:46:05;;;;;;;1.88;1.63;;;;;;;9.66;100.00;99822.28;4957810;28;20066;-51
2021/12/01 01:48:45;;;;;;;1.85;1.63;;;;;;;9.62;100.00;99818.53;4954169;29;20118;-51
2021/12/01 01:51:14;;;;;;;1.60;1.50;;;;;;;9.55;100.00;99809.88;4954694;28;20055;-54
2021/12/01 01:53:41;;;;;;;1.65;1.50;;;;;;;9.57;100.00;99805.78;4955407;28;20051;-51
2021/12/01 01:56:10;;;;;;;3.72;1.77;;;;;;;9.56;100.00;99789.75;4956099;28;20039;-50
2021/12/01 01:58:38;;;;;;;3.13;1.90;;;;;;;9.56;100.00;99792.47;4955217;28;20063;-50
2021/12/01 02:02:01;;;;;;;1.85;1.38;;;;;;;9.60;100.00;99790.78;4955111;28;20130;-47
2021/12/01 02:04:01;;;;;;;3.45;1.70;;;;;;;9.57;100.00;99792.19;4941296;29;20055;-47
2021/12/01 02:06:31;;;;;;;1.88;1.73;;;;;;;9.53;100.00;99787.59;4955396;28;20047;-46
2021/12/01 02:08:59;;;;;;;3.13;2.03;;;;;;;9.59;100.00;99759.25;4956614;28;20058;-47
2021/12/01 02:11:29;;;;;;;2.83;1.90;;;;;;;9.61;100.00;99765.22;4959803;28;20043;-47
2021/12/01 02:13:56;;;;;;;2.40;1.83;;;;;;;9.56;100.00;99763.34;4954789;28;20101;-50
2021/12/01 02:16:24;;;;;;;2.95;2.00;;;;;;;9.52;100.00;99753.34;4959729;28;20047;-48
2021/12/01 02:18:54;;;;;;;1.77;1.67;;;;;;;9.52;100.00;99747.91;4954191;28;20126;-50
2021/12/01 02:21:29;;;;;;;1.80;1.70;;;;;;;9.57;100.00;99745.94;4954669;28;20043;-48
2021/12/01 02:24:03;;;;;;;1.45;1.35;;;;;;;9.51;100.00;99740.84;4954527;29;20043;-49
2021/12/01 02:26:32;;;;;;;1.77;1.67;;;;;;;9.49;100.00;99737.59;4960370;28;20054;-52
2021/12/01 02:29:04;;;;;;;2.13;1.45;;;;;;;9.44;100.00;99716.72;4954819;29;20031;-51
2021/12/01 02:31:35;;;;;;;2.90;1.35;;;;;;;9.47;100.00;99707.97;4954125;28;20363;-51
2021/12/01 02:34:08;;;;;;;1.52;1.42;;;;;;;9.54;100.00;99699.47;4952154;28;20046;-54
2021/12/01 02:36:37;;;;;;;2.50;1.67;;;;;;;9.63;100.00;99697.75;4954961;28;20542;-50
2021/12/01 02:39:09;;;;;;;2.78;1.35;;;;;;;9.67;100.00;99687.09;4967158;28;20059;-50
2021/12/01 02:41:37;;;;;;;1.58;1.48;;;;;;;9.64;100.00;99674.88;4954551;29;20055;-50
2021/12/01 02:44:06;;;;;;;2.58;1.65;;;;;;;9.58;100.00;99674.13;4954025;29;20039;-52
2021/12/01 02:46:34;;;;;;;1.88;1.17;;;;;;;9.67;100.00;99658.00;4955109;28;20047;-50
2021/12/01 02:49:02;;;;;;;1.15;1.10;;;;;;;9.55;100.00;99660.31;4953774;28;20413;-51
2021/12/01 02:51:32;;;;;;;1.20;1.10;;;;;;;9.58;100.00;99659.75;4954264;29;20039;-52
2021/12/01 02:53:59;;;;;;;1.77;1.40;;;;;;;9.49;100.00;99648.69;4953758;29;20042;-48
2021/12/01 02:56:32;;;;;;;1.40;1.08;;;;;;;9.74;100.00;99655.75;4952637;28;20532;-50
2021/12/01 02:59:03;;;;;;;1.52;1.10;;;;;;;9.81;100.00;99652.63;4953730;28;20517;-50
2021/12/01 03:01:31;;;;;;;1.77;1.27;;;;;;;9.87;100.00;99645.25;4953921;28;20549;-52
2021/12/01 03:03:59;;;;;;;1.63;1.30;;;;;;;9.80;100.00;99646.41;4953359;29;20047;-51
2021/12/01 03:06:27;;;;;;;1.15;1.13;;;;;;;9.62;100.00;99628.16;4955202;28;20066;-53
2021/12/01 03:08:56;;;;;;;3.60;1.30;;;;;;;9.57;100.00;99630.91;4953830;28;20055;-52
2021/12/01 03:11:24;;;;;;;1.15;1.10;;;;;;;9.75;100.00;99613.03;4954208;29;20121;-52
2021/12/01 03:13:53;;;;;;;2.25;1.58;;;;;;;9.65;100.00;99627.56;4953463;29;20047;-50
2021/12/01 03:16:21;;;;;;;3.10;1.10;;;;;;;9.54;100.00;99607.03;4953870;29;20039;-51
2021/12/01 03:18:48;;;;;;;3.42;1.35;;;;;;;9.74;100.00;99598.63;4954169;28;20044;-51
2021/12/01 03:21:16;;;;;;;2.75;1.48;;;;;;;9.69;100.00;99585.09;4953810;28;20039;-51
2021/12/01 03:23:44;;;;;;;2.08;1.73;;;;;;;9.55;100.00;99590.44;4953819;29;20051;-54
2021/12/01 03:26:12;;;;;;;1.95;1.52;;;;;;;9.64;100.00;99590.56;4953495;29;20039;-52
2021/12/01 03:28:40;;;;;;;2.53;1.60;;;;;;;9.70;100.00;99592.13;4954363;28;20494;-52
2021/12/01 03:31:08;;;;;;;1.73;1.63;;;;;;;9.68;100.00;99572.56;4953775;29;20052;-55
2021/12/01 03:33:36;;;;;;;2.15;1.80;;;;;;;9.49;100.00;99569.03;4953449;28;20043;-52
2021/12/01 03:36:04;;;;;;;1.70;1.58;;;;;;;9.56;100.00;99553.97;4953515;29;20059;-49
2021/12/01 03:38:32;;;;;;;3.00;1.73;;;;;;;9.48;100.00;99565.50;4954440;28;20043;-54
2021/12/01 03:40:59;;;;;;;1.25;1.00;;;;;;;9.69;100.00;99552.44;4953722;29;20824;-51
2021/12/01 03:43:27;;;;;;;2.72;1.55;;;;;;;9.51;100.00;99545.06;4953441;29;20039;-53
2021/12/01 03:45:55;;;;;;;1.90;1.35;;;;;;;9.60;100.00;99543.31;4953311;28;20051;-50
2021/12/01 03:48:24;;;;;;;2.42;1.50;;;;;;;9.51;100.00;99531.47;4957284;28;20039;-55
2021/12/01 03:50:54;;;;;;;1.75;1.63;;;;;;;9.55;100.00;99524.38;4958249;28;20043;-50
2021/12/01 03:53:23;;;;;;;1.75;1.40;;;;;;;9.62;100.00;99523.97;4957304;29;20047;-53
2021/12/01 03:55:51;;;;;;;1.90;1.80;;;;;;;9.45;100.00;99514.41;4957005;28;20039;-50
2021/12/01 03:58:19;;;;;;;2.72;1.70;;;;;;;9.47;100.00;99511.41;4957553;29;20051;-51
2021/12/01 04:00:47;;;;;;;3.13;1.52;;;;;;;9.56;100.00;99515.09;4957592;28;20043;-51
2021/12/01 04:03:15;;;;;;;1.92;1.55;;;;;;;9.39;100.00;99500.09;4957217;29;20125;-49
2021/12/01 04:05:44;;;;;;;4.40;1.95;;;;;;;9.45;100.00;99491.84;4957003;29;20098;-50
2021/12/01 04:08:11;;;;;;;2.35;1.70;;;;;;;9.47;100.00;99473.34;4957247;29;20043;-52
2021/12/01 04:10:41;;;;;;;2.42;1.88;;;;;;;9.32;100.00;99461.59;4958055;28;20549;-50
2021/12/01 04:13:08;;;;;;;2.25;2.00;;;;;;;9.47;100.00;99457.84;4957199;29;20047;-53
2021/12/01 04:15:36;;;;;;;2.03;1.77;;;;;;;9.42;100.00;99457.13;4956085;29;20051;-51
2021/12/01 04:18:04;;;;;;;2.55;1.77;;;;;;;9.35;100.00;99454.75;4956900;29;20043;-52
2021/12/01 04:20:31;;;;;;;3.30;2.03;;;;;;;9.32;100.00;99441.75;4957813;28;20039;-52
2021/12/01 04:22:59;;;;;;;2.17;1.90;;;;;;;9.31;100.00;99443.66;4957098;28;20070;-53
2021/12/01 04:25:27;;;;;;;2.78;1.90;;;;;;;9.32;100.00;99430.88;4956641;29;20086;-53
2021/12/01 04:27:54;;;;;;;2.15;1.67;;;;;;;9.26;100.00;99427.44;4956694;29;20031;-54
2021/12/01 04:30:24;;;;;;;3.60;1.58;;;;;;;9.36;100.00;99419.13;4957391;28;20043;-53
2021/12/01 04:32:53;;;;;;;2.15;1.90;;;;;;;9.44;100.00;99414.13;4956767;28;20047;-52
2021/12/01 04:35:23;;;;;;;2.78;1.90;;;;;;;9.34;100.00;99406.94;4956404;29;20382;-49
2021/12/01 04:37:52;;;;;;;3.25;2.15;;;;;;;9.29;100.00;99396.94;4986180;28;20622;-55
2021/12/01 04:40:19;;;;;;;1.70;1.30;;;;;;;9.37;100.00;99387.31;4956447;28;20050;-51
2021/12/01 04:42:47;;;;;;;1.13;0.77;;;;;;;9.55;100.00;99377.53;4955620;28;20040;-54
2021/12/01 04:45:16;;;;;;;2.25;1.63;;;;;;;9.58;100.00;99374.22;4954479;29;20039;-53
2021/12/01 04:47:48;;;;;;;1.50;1.40;;;;;;;9.45;100.00;99372.25;4955462;29;20066;-54
2021/12/01 04:50:17;;;;;;;2.38;1.67;;;;;;;9.42;100.00;99372.84;4955311;29;20051;-55
2021/12/01 04:52:46;;;;;;;2.00;1.38;;;;;;;9.44;100.00;99354.31;4960863;28;20062;-56
2021/12/01 04:55:14;;;;;;;1.52;1.42;;;;;;;9.58;100.00;99347.03;4955128;28;20051;-53
2021/12/01 04:57:43;;;;;;;2.20;1.63;;;;;;;9.71;100.00;99342.72;4954828;28;20049;-55
2021/12/01 05:00:18;;;;;;;2.50;1.80;;;;;;;9.46;100.00;99335.81;4954609;29;20058;-54
2021/12/01 05:02:45;;;;;;;2.50;1.52;;;;;;;9.46;100.00;99331.19;4956223;28;20043;-54
2021/12/01 05:05:13;;;;;;;0.80;0.80;;;;;;;9.53;100.00;99319.91;4953291;29;20062;-54
2021/12/01 05:07:41;;;;;;;1.17;1.10;;;;;;;9.53;100.00;99319.91;4955157;28;20078;-54
2021/12/01 05:10:09;;;;;;;2.53;1.80;;;;;;;9.65;100.00;99317.53;4955228;29;20050;-51
2021/12/01 05:12:37;;;;;;;1.40;1.27;;;;;;;9.48;100.00;99307.22;4955836;28;20505;-50
2021/12/01 05:15:05;;;;;;;2.28;1.75;;;;;;;9.46;100.00;99308.63;4954504;28;20071;-52
2021/12/01 05:17:33;;;;;;;1.83;1.60;;;;;;;9.30;100.00;99317.00;4954878;28;20039;-49
2021/12/01 05:20:02;;;;;;;1.50;1.42;;;;;;;9.33;100.00;99308.28;4954934;29;20074;-53
2021/12/01 05:22:30;;;;;;;4.13;1.73;;;;;;;9.34;100.00;99301.72;4954957;29;20102;-50
2021/12/01 05:24:57;;;;;;;2.28;1.20;;;;;;;9.34;100.00;99292.78;4955671;28;20043;-50
2021/12/01 05:27:25;;;;;;;1.92;1.40;;;;;;;9.32;100.00;99297.69;4954681;28;20043;-53
2021/12/01 05:29:53;;;;;;;1.98;1.40;;;;;;;9.30;100.00;99289.84;4954568;29;20047;-51
2021/12/01 05:32:21;;;;;;;1.95;1.40;;;;;;;9.27;100.00;99285.00;4954455;29;20593;-53
2021/12/01 05:34:48;;;;;;;1.40;1.03;;;;;;;9.23;100.00;99273.09;4919119;28;1066786;-52
2021/12/01 05:37:16;;;;;;;1.38;1.27;;;;;;;9.31;100.00;99286.03;4955388;29;20047;-51
2021/12/01 05:39:45;;;;;;;1.48;0.95;;;;;;;9.28;100.00;99270.28;4955052;29;20047;-54
2021/12/01 05:42:14;;;;;;;1.55;1.15;;;;;;;9.26;100.00;99272.53;4953633;29;20494;-49
2021/12/01 05:44:43;;;;;;;1.20;1.10;;;;;;;9.37;100.00;99262.28;4956228;28;20042;-51
2021/12/01 05:47:11;;;;;;;1.20;1.10;;;;;;;9.53;100.00;99254.66;4955190;28;20102;-50
2021/12/01 05:49:42;;;;;;;1.67;1.13;;;;;;;9.55;100.00;99252.47;4955474;29;20039;-54
2021/12/01 05:52:10;;;;;;;1.10;0.85;;;;;;;9.48;100.00;99247.41;4955259;29;20409;-49
2021/12/01 05:54:38;;;;;;;0.70;0.70;;;;;;;9.29;100.00;99239.31;4956363;28;20051;-51
2021/12/01 05:57:06;;;;;;;1.30;1.23;;;;;;;9.25;100.00;99232.84;4954394;29;20050;-49
2021/12/01 05:59:34;;;;;;;1.73;1.10;;;;;;;9.23;100.00;99228.81;4955221;29;20498;-51
2021/12/01 06:02:02;;;;;;;2.53;1.30;;;;;;;9.34;100.00;99224.81;4955153;29;20070;-48
2021/12/01 06:04:29;;;;;;;1.20;1.10;;;;;;;9.30;100.00;99219.16;4956248;28;20434;-46
2021/12/01 06:06:57;;;;;;;0.95;0.65;;;;;;;9.26;100.00;99210.03;4954996;28;20059;-46
2021/12/01 06:09:27;;;;;;;0.80;0.80;;;;;;;9.47;100.00;99198.75;4954109;28;20098;-49
2021/12/01 06:11:55;;;;;;;1.73;0.93;;;;;;;9.36;100.00;99201.69;4954344;29;20058;-46
2021/12/01 06:14:23;;;;;;;1.38;0.88;;;;;;;9.19;100.00;99190.56;4953354;28;20047;-50
2021/12/01 06:16:51;;;;;;;0.75;0.75;;;;;;;9.21;100.00;99198.41;4955748;28;20081;-50
2021/12/01 06:19:18;;;;;;;3.42;1.10;;;;;;;9.31;100.00;99163.72;4954840;29;20089;-47
2021/12/01 06:21:46;;;;;;;0.70;0.70;;;;;;;9.29;100.00;99160.50;4954960;29;20402;-50
2021/12/01 06:24:13;;;;;;;1.20;0.95;;;;;;;9.17;100.00;99160.19;4955443;28;20047;-53
2021/12/01 06:26:42;;;;;;;1.33;1.20;;;;;;;9.20;100.00;99158.78;4952763;29;20126;-51
2021/12/01 06:29:09;;;;;;;0.80;0.80;;;;;;;9.08;100.00;99167.41;4954568;29;20505;-51
2021/12/01 06:31:37;;;;;;;0.95;0.70;;;;;;;9.00;100.00;99170.81;4954668;28;20043;-52
2021/12/01 06:34:05;;;;;;;1.85;0.90;;;;;;;9.16;100.00;99163.97;4954667;28;20549;-53
2021/12/01 06:36:32;;;;;;;0.77;0.70;;;;;;;9.32;100.00;99162.59;4955016;28;20524;-51
2021/12/01 06:39:00;;;;;;;1.30;1.10;;;;;;;9.26;100.00;99143.97;4954119;29;20043;-52
2021/12/01 06:41:27;;;;;;;1.83;0.82;;;;;;;9.05;100.00;99149.00;4953707;29;20062;-52
2021/12/01 06:43:55;;;;;;;1.23;0.90;;;;;;;8.89;100.00;99151.16;4955051;28;20031;-50
2021/12/01 06:46:23;;;;;;;1.75;1.10;;;;;;;8.83;100.00;99149.66;4954098;28;20043;-52
2021/12/01 06:48:51;;;;;;;1.17;0.85;;;;;;;8.80;100.00;99142.88;4954447;28;20442;-55
2021/12/01 06:51:19;;;;;;;1.23;0.80;;;;;;;8.88;100.00;99134.06;4954441;29;20127;-53
2021/12/01 06:53:46;;;;;;;1.20;0.90;;;;;;;9.08;100.00;99134.78;4952563;29;20066;-50
2021/12/01 06:56:16;;;;;;;0.90;0.85;;;;;;;8.99;100.00;99128.44;4961263;28;20043;-53
2021/12/01 06:58:44;;;;;;;1.27;1.13;;;;;;;9.08;100.00;99118.50;4953731;28;20085;-51
2021/12/01 07:01:12;;;;;;;1.55;1.02;;;;;;;9.01;100.00;99118.88;4953788;29;20054;-54
2021/12/01 07:03:41;;;;;;;2.38;1.15;;;;;;;8.99;100.00;99115.66;4953930;28;20051;-50
2021/12/01 07:06:09;;;;;;;1.63;1.00;;;;;;;8.90;100.00;99128.34;4954843;28;20074;-50
2021/12/01 07:08:38;;;;;;;1.00;1.00;;;;;;;8.85;100.00;99115.66;4953376;28;20039;-49
2021/12/01 07:11:05;;;;;;;1.58;0.90;;;;;;;9.06;100.00;99113.34;4953314;28;20065;-49
2021/12/01 07:13:34;;;;;;;1.00;1.00;;;;;;;9.13;100.00;99111.03;4954563;28;20047;-48
2021/12/01 07:16:02;;;;;;;0.60;0.60;;;;;;;9.13;100.00;99096.66;4952976;28;20098;-49
2021/12/01 07:18:30;;;;;;;0.80;0.80;;;;;;;9.01;100.00;99107.22;4953775;28;20146;-50
2021/12/01 07:20:57;;;;;;;1.00;1.00;;;;;;;8.95;100.00;99107.31;4953297;28;20035;-55
2021/12/01 07:23:25;;;;;;;0.70;0.70;;;;;;;9.00;100.00;99095.56;4267088;28;10000288;-51
2021/12/01 07:26:01;;;;;;;2.80;1.10;;;;;;;9.12;100.00;99086.91;4951828;28;20493;-52
2021/12/01 07:28:29;;;;;;;1.42;1.00;;;;;;;9.00;100.00;99100.19;4951251;29;20046;-50
2021/12/01 07:30:57;;;;;;;1.70;1.33;;;;;;;9.10;100.00;99089.13;4950482;29;20043;-49
2021/12/01 07:33:29;;;;;;;1.25;1.15;;;;;;;9.39;100.00;99086.09;4951372;28;20038;-54
2021/12/01 07:35:57;;;;;;;1.00;0.80;;;;;;;9.39;100.00;99097.78;4950881;29;20059;-53
2021/12/01 07:38:24;;;;;;;0.85;0.85;;;;;;;9.39;100.00;99084.19;4950535;29;20055;-53
2021/12/01 07:40:52;;;;;;;2.30;1.38;;;;;;;9.29;100.00;99084.41;4951295;29;20088;-53
2021/12/01 07:43:20;;;;;;;1.50;1.40;;;;;;;9.25;100.00;99088.81;4951289;28;20540;-54
2021/12/01 07:45:48;;;;;;;1.95;1.35;;;;;;;9.09;100.00;99076.63;4951166;29;20051;-52
2021/12/01 07:48:15;;;;;;;1.35;1.25;;;;;;;9.01;100.00;99075.41;4950787;29;20406;-51
2021/12/01 07:50:44;;;;;;;1.58;0.98;;;;;;;9.34;100.00;99062.53;4951000;29;20354;-50
2021/12/01 07:53:11;;;;;;;2.50;1.10;;;;;;;9.68;100.00;99047.69;4950490;28;20043;-54
2021/12/01 07:55:40;;;;;;;1.65;1.02;;;;;;;9.53;100.00;99058.91;4918113;29;20079;-49
2021/12/01 07:58:07;;;;;;;2.08;1.08;;;;;;;9.35;100.00;99053.28;4950818;29;20058;-50
2021/12/01 08:00:35;;;;;;;4.28;1.30;;;;;;;9.28;100.00;99052.88;4950585;28;20035;-51
2021/12/01 08:03:04;;;;;;;1.10;0.85;;;;;;;9.33;100.00;99055.50;4954346;28;20051;-50
2021/12/01 08:05:33;;;;;;;3.03;1.42;;;;;;;9.30;100.00;99049.88;4950725;28;20478;-50
2021/12/01 08:08:01;;;;;;;8.43;1.23;;;;;;;9.39;100.00;99046.13;4950782;28;20067;-52
2021/12/01 08:10:28;;;;;;;1.00;1.00;;;;;;;9.35;100.00;99058.72;4951511;28;20047;-50
2021/12/01 08:12:56;;;;;;;3.38;1.45;;;;;;;9.28;100.00;99044.72;4953137;28;20481;-46
2021/12/01 08:15:45;;;;;;;2.58;1.10;;;;;;;9.20;100.00;99039.22;4951689;29;20047;-49
2021/12/01 08:18:13;;;;;;;1.48;0.90;;;;;;;9.06;100.00;99047.34;4954022;28;20097;-51
2021/12/01 08:20:41;;;;;;;1.98;0.98;;;;;;;9.26;100.00;99046.97;4952014;29;20460;-53
2021/12/01 08:23:09;;;;;;;1.27;1.10;;;;;;;9.20;100.00;99040.00;4952420;29;20062;-52
2021/12/01 08:25:37;;;;;;;2.33;1.33;;;;;;;9.23;100.00;99038.59;4951469;29;20039;-49
2021/12/01 08:28:05;;;;;;;1.55;1.10;;;;;;;9.18;100.00;99044.94;4953069;28;20051;-54
2021/12/01 08:30:32;;;;;;;1.15;1.05;;;;;;;9.38;100.00;99038.31;4952678;29;20078;-49
2021/12/01 08:33:00;;;;;;;1.60;1.50;;;;;;;9.57;100.00;99027.25;4953870;28;20043;-53
2021/12/01 08:35:28;;;;;;;1.65;1.17;;;;;;;9.79;100.00;99032.78;4955809;29;20405;-53
2021/12/01 08:37:57;;;;;;;1.83;1.23;;;;;;;9.51;100.00;99033.94;4956817;28;20537;-52
2021/12/01 08:40:24;;;;;;;8.43;2.60;;;;;;;9.25;100.00;99030.94;4955594;28;20062;-51
2021/12/01 08:42:52;;;;;;;2.83;1.70;;;;;;;9.31;100.00;99025.13;4986803;28;20043;-52
2021/12/01 08:45:20;;;;;;;23.20;5.38;;;;;;;9.43;100.00;99019.16;4955771;28;20039;-51
2021/12/01 08:47:49;;;;;;;13.13;4.07;;;;;;;10.07;100.00;99015.53;4953295;29;20094;-54
2021/12/01 08:50:17;;;;;;;21.88;6.00;;;;;;;10.01;100.00;99014.88;4956925;28;20126;-52
2021/12/01 08:52:45;;;;;;;7.40;2.75;;;;;;;9.86;100.00;99018.75;4955310;29;20054;-50
2021/12/01 08:55:13;;;;;;;7.75;2.35;;;;;;;9.63;100.00;99007.03;4955683;29;20047;-52
2021/12/01 08:58:02;;;;;;;8.65;3.05;;;;;;;9.39;100.00;98989.06;4955840;29;20046;-50
2021/12/01 09:00:33;;;;;;;7.05;2.33;;;;;;;9.23;100.00;98992.41;4958270;28;20070;-50
2021/12/01 09:03:01;;;;;;;5.00;2.28;;;;;;;9.26;100.00;98989.06;4946356;29;20074;-48
2021/12/01 09:05:29;;;;;;;3.20;1.55;;;;;;;9.16;100.00;98992.81;4954840;28;20102;-49
2021/12/01 09:07:56;;;;;;;2.47;1.55;;;;;;;9.08;100.00;99001.69;4953997;29;20071;-49
2021/12/01 09:10:24;;;;;;;3.67;1.67;;;;;;;9.06;100.00;99003.88;4956579;28;20071;-51
2021/12/01 09:12:51;;;;;;;3.85;1.80;;;;;;;9.04;100.00;99015.03;4955283;29;20037;-54
2021/12/01 09:15:19;;;;;;;9.20;3.35;;;;;;;9.12;100.00;99006.22;4955482;28;20065;-48
2021/12/01 09:17:48;;;;;;;11.40;3.40;;;;;;;9.13;100.00;99012.44;4955781;28;20118;-50
2021/12/01 09:20:16;;;;;;;14.23;4.25;;;;;;;9.24;100.00;99005.69;4955857;28;20043;-49
2021/12/01 09:22:43;;;;;;;2.95;1.88;;;;;;;9.27;100.00;99012.44;4955434;28;20131;-49
2021/12/01 09:25:12;;;;;;;2.50;1.90;;;;;;;9.18;100.00;99015.03;4955456;29;20046;-49
2021/12/01 09:27:39;;;;;;;2.67;1.65;;;;;;;9.12;100.00;99030.66;4955232;28;20051;-49
2021/12/01 09:30:08;;;;;;;3.53;1.90;;;;;;;9.10;100.00;99019.28;4955364;29;20138;-53
2021/12/01 09:32:38;;;;;;;3.88;2.20;;;;;;;9.05;100.00;99021.31;4956641;28;20101;-53
2021/12/01 09:35:10;;;;;;;7.60;2.80;;;;;;;9.07;100.00;99027.25;4954613;29;20186;-51
2021/12/01 09:37:38;;;;;;;18.30;4.13;;;;;;;9.30;100.00;99022.69;4944177;29;20043;-52
2021/12/01 09:40:13;;;;;;;3.33;1.90;;;;;;;9.21;100.00;99029.94;4954310;28;20040;-54
2021/12/01 09:42:46;;;;;;;3.50;1.50;;;;;;;9.12;100.00;99038.00;4955396;28;20043;-51
2021/12/01 09:45:15;;;;;;;4.80;1.90;;;;;;;9.04;100.00;99055.00;4953450;28;20420;-50
2021/12/01 09:47:43;;;;;;;3.80;1.80;;;;;;;8.92;100.00;99059.03;4954995;29;20044;-53
2021/12/01 09:50:11;;;;;;;3.42;2.00;;;;;;;8.85;100.00;99072.19;4954337;29;20047;-49
2021/12/01 09:52:39;;;;;;;7.32;2.33;;;;;;;8.77;100.00;99058.50;4955853;28;20055;-52
2021/12/01 09:55:07;;;;;;;8.20;2.25;;;;;;;8.69;100.00;99063.50;4954457;29;20058;-52
2021/12/01 09:57:35;;;;;;;11.25;2.88;;;;;;;8.77;100.00;99048.44;4954445;29;20039;-50
2021/12/01 10:00:05;;;;;;;7.65;2.20;;;;;;;8.77;100.00;99045.72;4954883;28;20375;-50
2021/12/01 10:02:33;;;;;;;6.13;2.10;;;;;;;8.74;100.00;99054.47;4955332;28;20154;-48
2021/12/01 10:05:01;;;;;;;6.72;2.30;;;;;;;8.68;100.00;99044.78;4954207;28;20098;-49
2021/12/01 10:07:33;;;;;;;8.48;2.40;;;;;;;8.63;100.00;99044.88;4953728;28;20047;-49
2021/12/01 10:10:09;;;;;;;7.43;2.45;;;;;;;8.63;100.00;99047.59;4954293;28;20556;-51
2021/12/01 10:12:50;;;;;;;7.82;3.00;;;;;;;8.61;100.00;99047.09;4954434;28;20118;-51
2021/12/01 10:15:29;;;;;;;8.35;2.33;;;;;;;8.64;100.00;99039.16;4959598;28;20047;-52
2021/12/01 10:18:15;;;;;;;9.98;2.53;;;;;;;8.67;100.00;99041.28;4951294;28;20035;-52
2021/12/01 10:21:04;;;;;;;13.77;2.85;;;;;;;8.69;100.00;99030.13;4956071;28;20146;-51
2021/12/01 10:23:33;;;;;;;13.90;3.33;;;;;;;8.68;100.00;99029.34;4956374;28;20058;-50
2021/12/01 10:26:15;;;;;;;9.32;2.50;;;;;;;8.71;100.00;99030.63;4956027;28;20055;-50
2021/12/01 10:28:57;;;;;;;10.48;2.80;;;;;;;8.71;100.00;99049.66;4955910;29;20134;-57
2021/12/01 10:31:36;;;;;;;6.10;2.67;;;;;;;8.72;100.00;99057.47;4953800;29;20058;-55
2021/12/01 10:34:28;;;;;;;12.40;3.05;;;;;;;8.76;100.00;99046.84;4953656;29;20044;-53
2021/12/01 10:37:18;;;;;;;10.80;2.55;;;;;;;8.78;100.00;99052.78;4953763;28;20059;-48
2021/12/01 10:40:08;;;;;;;9.77;2.97;;;;;;;8.77;100.00;99043.00;4953784;28;20063;-53
2021/12/01 10:42:58;;;;;;;8.57;2.60;;;;;;;8.79;100.00;99048.16;4954848;28;20046;-51
2021/12/01 10:45:49;;;;;;;9.52;2.35;;;;;;;8.77;99.38;99048.44;4953024;28;20042;-45
2021/12/01 10:48:26;;;;;;;10.88;2.90;;;;;;;8.72;97.39;99056.69;4951902;29;20521;-50
2021/12/01 10:50:54;;;;;;;6.53;2.28;;;;;;;8.65;98.05;99045.41;4952852;29;20044;-47
2021/12/01 10:53:23;;;;;;;7.63;2.30;;;;;;;8.64;97.66;99049.22;4954864;28;20047;-50
2021/12/01 10:56:11;;;;;;;8.43;2.47;;;;;;;8.58;97.83;99032.22;4953208;28;20058;-45
2021/12/01 10:58:40;;;;;;;9.25;2.17;;;;;;;8.63;98.60;99039.47;4952399;29;20043;-49
2021/12/01 11:01:25;;;;;;;7.30;2.20;;;;;;;8.61;98.24;99031.63;4952970;29;20047;-49
2021/12/01 11:03:54;;;;;;;7.20;2.38;;;;;;;8.66;99.13;99028.00;4956977;28;20125;-47
2021/12/01 11:06:23;;;;;;;6.88;2.13;;;;;;;8.73;96.90;99029.22;4962545;28;20461;-49
2021/12/01 11:08:58;;;;;;;6.05;2.22;;;;;;;8.72;97.36;99040.38;4953508;28;20042;-52
2021/12/01 11:11:39;;;;;;;9.07;2.20;;;;;;;8.63;97.10;99032.13;4953693;29;20047;-49
2021/12/01 11:14:26;;;;;;;9.27;2.90;;;;;;;8.61;97.18;99023.50;4953564;28;20046;-45
2021/12/01 11:16:54;;;;;;;6.78;2.28;;;;;;;8.59;97.62;99041.19;4952517;28;20051;-47
2021/12/01 11:19:32;;;;;;;9.63;2.40;;;;;;;8.50;96.73;99039.13;4953617;28;20114;-49
2021/12/01 11:22:27;;;;;;;9.82;2.60;;;;;;;8.50;97.17;99043.75;4953492;29;20049;-48
2021/12/01 11:25:21;;;;;;;6.28;1.92;;;;;;;8.49;97.46;99037.53;4954255;28;20043;-49
2021/12/01 11:27:48;;;;;;;9.20;2.40;;;;;;;8.50;96.56;99044.56;4952898;28;20054;-49
2021/12/01 11:30:16;;;;;;;10.18;2.78;;;;;;;8.52;96.55;99057.84;4953594;29;20049;-49
2021/12/01 11:32:59;;;;;;;6.10;2.50;;;;;;;8.51;97.87;99048.91;4953268;29;20039;-49
2021/12/01 11:35:27;;;;;;;9.90;2.78;;;;;;;8.49;96.64;99053.81;4953232;28;20051;-48
2021/12/01 11:37:55;;;;;;;8.63;2.73;;;;;;;8.45;97.12;99047.38;4260814;28;10000600;-51
2021/12/01 11:40:28;;;;;;;6.93;2.42;;;;;;;8.50;96.69;99044.56;4951203;28;20345;-50
2021/12/01 11:42:57;;;;;;;8.95;2.38;;;;;;;8.52;97.44;99041.56;4950850;29;20047;-49
2021/12/01 11:45:25;;;;;;;7.40;2.30;;;;;;;8.51;97.46;99039.94;4950165;28;20058;-51
2021/12/01 11:47:53;;;;;;;10.88;3.17;;;;;;;8.52;96.78;99031.50;4952007;28;20123;-51
2021/12/01 11:50:31;;;;;;;8.52;2.53;;;;;;;8.52;96.65;99047.00;4950280;28;20035;-50
2021/12/01 11:53:17;;;;;;;9.57;2.88;;;;;;;8.55;97.32;99030.09;4949677;29;20050;-50
2021/12/01 11:55:53;;;;;;;10.93;3.00;;;;;;;8.48;96.67;99038.63;4976157;28;20051;-47